This is the latest recevied weather packets stored in our database for station/object XE2RCS-1. If no packets are shown the sender has not sent any weather packets the latest 10 day(s).
| Time | Temp. | Humidity | Pressure | Rain* | Wind** | Luminosity | Snow |
|---|---|---|---|---|---|---|---|
| 1777578620 | 28.33° C | 50% | 1006 hPa | 0 mm | - | - | - |
| 1777578019 | 28.89° C | 46% | 1006 hPa | 0 mm | - | - | - |
| 1777577418 | 28.89° C | 45% | 1007 hPa | 0 mm | - | - | - |
| 1777576817 | 28.89° C | 44% | 1007 hPa | 0 mm | - | - | - |
| 1777576217 | 28.89° C | 42% | 1007 hPa | 0 mm | - | - | - |
| 1777575616 | 29.44° C | 41% | 1007 hPa | 0 mm | - | - | - |
| 1777575016 | 28.89° C | 41% | 1007 hPa | 0 mm | - | - | - |
| 1777574415 | 27.78° C | 45% | 1007 hPa | 0 mm | - | - | - |
| 1777573814 | 27.78° C | 47% | 1008 hPa | 0 mm | - | - | - |
| 1777573214 | 27.78° C | 48% | 1008 hPa | 0 mm | - | - | - |
| 1777572613 | 27.78° C | 47% | 1008 hPa | 0 mm | - | - | - |
| 1777572013 | 27.78° C | 47% | 1008 hPa | 0 mm | - | - | - |
| 1777571412 | 27.22° C | 49% | 1008 hPa | 0 mm | - | - | - |
| 1777570811 | 26.67° C | 52% | 1008 hPa | 0 mm | - | - | - |
| 1777570211 | 26.11° C | 55% | 1008 hPa | 0 mm | - | - | - |
| 1777569610 | 26.11° C | 57% | 1009 hPa | 0 mm | - | - | - |
| 1777569010 | 26.11° C | 57% | 1009 hPa | 0 mm | - | - | - |
| 1777568409 | 30° C | 10% | - | 0 mm | - | - | - |
| 1777567808 | 30° C | 10% | - | 0 mm | - | - | - |
| 1777567208 | 30° C | 10% | - | 0 mm | - | - | - |
| 1777566607 | 24.44° C | 79% | 1010 hPa | 0 mm | - | - | - |
| 1777566006 | 24.44° C | 80% | 1010 hPa | 0 mm | - | - | - |
| 1777565406 | 24.44° C | 86% | 1010 hPa | 0 mm | - | - | - |
| 1777564805 | 25° C | 10% | - | 0 mm | - | - | - |
| 1777564205 | 25° C | 10% | - | 0 mm | - | - | - |
* Rain latest hour (hover to see other rain measurements)
** Current wind speed in m/s (hover to see current wind gust speed)